Time;durP1;ratioP1;P1;durP2;ratioP2;P2;SDS_P1;SDS_P2;PMS_P1;PMS_P2;Temp;Humidity;BMP_temperature;BMP_pressure;BME280_temperature;BME280_humidity;BME280_pressure;Samples;Min_cycle;Max_cycle;Signal;HPM_P1;HPM_P2
2023/01/11 00:00:23;;;;;;;2.50;1.40;;;;;;;;;;5091557;28;20061;-61
2023/01/11 00:03:00;;;;;;;4.63;1.47;;;;;;;;;;5104190;28;20043;-62
2023/01/11 00:05:26;;;;;;;2.90;1.50;;;;;;;;;;5101983;28;20020;-61
2023/01/11 00:07:53;;;;;;;7.20;1.20;;;;;;;;;;5092730;28;20046;-61
2023/01/11 00:10:20;;;;;;;7.20;1.37;;;;;;;;;;5103296;28;20031;-61
2023/01/11 00:12:47;;;;;;;2.60;1.53;;;;;;;;;;5109279;28;20492;-61
2023/01/11 00:15:14;;;;;;;7.03;2.07;;;;;;;;;;5106040;28;20069;-61
2023/01/11 00:17:41;;;;;;;2.97;2.03;;;;;;;;;;5092296;28;20027;-62
2023/01/11 00:20:09;;;;;;;5.77;1.87;;;;;;;;;;5104518;28;20035;-61
2023/01/11 00:22:36;;;;;;;1.67;1.20;;;;;;;;;;5109388;28;20031;-61
2023/01/11 00:25:03;;;;;;;2.37;1.33;;;;;;;;;;5112456;28;20039;-61
2023/01/11 00:27:30;;;;;;;2.03;1.30;;;;;;;;;;5097391;28;20036;-62
2023/01/11 00:29:56;;;;;;;4.97;2.13;;;;;;;;;;5092507;28;20488;-61
2023/01/11 00:32:23;;;;;;;10.30;2.63;;;;;;;;;;5112607;28;20027;-61
2023/01/11 00:34:50;;;;;;;4.77;2.20;;;;;;;;;;5109635;28;20406;-61
2023/01/11 00:37:16;;;;;;;4.80;2.37;;;;;;;;;;5104378;28;20050;-61
2023/01/11 00:39:43;;;;;;;4.30;1.57;;;;;;;;;;5086593;28;20073;-61
2023/01/11 00:47:59;;;;;;;4.30;2.03;;;;;;;;;;5098884;28;20181;-60
2023/01/11 00:50:30;;;;;;;5.33;2.13;;;;;;;;;;5097435;28;20024;-60
2023/01/11 00:52:58;;;;;;;6.73;1.37;;;;;;;;;;5098660;28;20032;-60
2023/01/11 00:55:26;;;;;;;3.50;2.07;;;;;;;;;;5107995;28;20102;-60
2023/01/11 00:57:53;;;;;;;2.40;1.73;;;;;;;;;;5090378;28;20233;-60
2023/01/11 01:00:21;;;;;;;2.10;1.37;;;;;;;;;;5086953;28;20039;-61
2023/01/11 01:02:48;;;;;;;3.87;2.20;;;;;;;;;;5086737;28;20078;-62
2023/01/11 01:05:15;;;;;;;1.70;1.07;;;;;;;;;;5092353;28;20043;-62
2023/01/11 01:07:42;;;;;;;1.93;1.50;;;;;;;;;;5090416;28;20031;-61
2023/01/11 01:10:09;;;;;;;12.50;2.00;;;;;;;;;;5101586;28;20031;-61
2023/01/11 01:15:21;;;;;;;2.13;1.35;;;;;;;;;;5112244;28;20404;-62
2023/01/11 01:17:48;;;;;;;2.80;1.80;;;;;;;;;;5098205;28;20032;-61
2023/01/11 01:20:15;;;;;;;2.57;1.50;;;;;;;;;;5095554;28;20166;-61
2023/01/11 01:22:42;;;;;;;2.70;2.00;;;;;;;;;;5099710;28;20032;-62
2023/01/11 01:25:09;;;;;;;6.13;2.87;;;;;;;;;;5102251;28;20024;-62
2023/01/11 01:27:36;;;;;;;4.10;2.83;;;;;;;;;;5086709;28;20024;-63
2023/01/11 01:30:03;;;;;;;4.93;1.63;;;;;;;;;;5090894;28;20035;-61
2023/01/11 01:32:30;;;;;;;3.77;2.10;;;;;;;;;;5093799;28;20085;-62
2023/01/11 01:34:57;;;;;;;2.30;1.70;;;;;;;;;;5110435;28;20023;-62
2023/01/11 01:37:23;;;;;;;3.90;1.93;;;;;;;;;;5112174;28;20566;-62
2023/01/11 01:39:50;;;;;;;6.70;2.23;;;;;;;;;;5103290;28;20031;-61
2023/01/11 01:42:18;;;;;;;1.17;0.97;;;;;;;;;;5096664;28;20036;-62
2023/01/11 01:45:02;;;;;;;2.17;1.57;;;;;;;;;;5107135;28;20023;-62
2023/01/11 01:47:34;;;;;;;2.50;1.33;;;;;;;;;;5107011;28;20419;-62
2023/01/11 01:50:04;;;;;;;2.40;1.33;;;;;;;;;;5110910;28;20024;-61
2023/01/11 01:52:32;;;;;;;3.03;1.50;;;;;;;;;;5104409;28;20539;-62
2023/01/11 01:55:00;;;;;;;1.47;1.13;;;;;;;;;;5095363;28;20020;-62
2023/01/11 01:57:29;;;;;;;2.83;1.03;;;;;;;;;;5095259;28;20508;-61
2023/01/11 01:59:56;;;;;;;1.67;1.30;;;;;;;;;;5094877;28;20565;-62
2023/01/11 02:02:24;;;;;;;2.60;1.73;;;;;;;;;;5104470;28;20031;-61
2023/01/11 02:04:52;;;;;;;4.43;1.60;;;;;;;;;;5111376;28;20024;-63
2023/01/11 02:07:25;;;;;;;5.00;1.87;;;;;;;;;;5110375;28;20020;-62
2023/01/11 02:09:59;;;;;;;5.77;2.10;;;;;;;;;;5110317;28;20465;-61
2023/01/11 02:12:28;;;;;;;5.20;2.47;;;;;;;;;;5106111;28;20178;-61
2023/01/11 02:14:54;;;;;;;2.83;1.53;;;;;;;;;;5109200;28;20032;-62
2023/01/11 02:17:21;;;;;;;4.10;2.60;;;;;;;;;;5103793;28;20024;-60
2023/01/11 02:19:51;;;;;;;3.03;1.97;;;;;;;;;;5100007;28;20027;-60
2023/01/11 02:22:36;;;;;;;1.07;0.93;;;;;;;;;;5104122;28;20531;-60
2023/01/11 02:25:22;;;;;;;2.23;1.37;;;;;;;;;;5094909;28;20028;-60
2023/01/11 02:28:08;;;;;;;6.53;2.22;;;;;;;;;;5089489;28;20107;-62
2023/01/11 02:30:38;;;;;;;2.83;1.47;;;;;;;;;;5089630;28;20020;-61
2023/01/11 02:33:13;;;;;;;3.63;1.60;;;;;;;;;;5089469;28;20420;-61
2023/01/11 02:35:48;;;;;;;3.70;2.40;;;;;;;;;;5089436;28;20028;-60
2023/01/11 02:38:16;;;;;;;8.43;3.27;;;;;;;;;;5094523;28;20026;-63
2023/01/11 02:40:54;;;;;;;36.57;3.17;;;;;;;;;;5094050;28;20070;-61
2023/01/11 02:46:47;;;;;;;14.40;4.47;;;;;;;;;;5105804;28;20038;-61
2023/01/11 02:49:34;;;;;;;;;;;;;;;;;;;;;
2023/01/11 02:52:12;;;;;;;3.60;2.60;;;;;;;;;;5085635;28;20066;-62
2023/01/11 02:54:55;;;;;;;12.73;2.13;;;;;;;;;;5088989;28;20028;-61
2023/01/11 02:57:49;;;;;;;4.57;2.13;;;;;;;;;;5088825;28;20447;-62
2023/01/11 03:00:21;;;;;;;5.27;2.60;;;;;;;;;;5093681;28;20035;-61
2023/01/11 03:03:12;;;;;;;5.17;3.00;;;;;;;;;;5092521;28;20034;-62
2023/01/11 03:05:57;;;;;;;2.60;1.97;;;;;;;;;;5082333;28;20044;-62
2023/01/11 03:08:30;;;;;;;6.22;4.45;;;;;;;;;;5103733;28;20430;-60
2023/01/11 03:11:00;;;;;;;3.43;2.03;;;;;;;;;;5112114;28;20032;-62
2023/01/11 03:13:45;;;;;;;3.57;2.37;;;;;;;;;;5108700;28;20474;-61
2023/01/11 03:16:22;;;;;;;3.37;2.33;;;;;;;;;;5108910;28;20015;-60
2023/01/11 03:18:48;;;;;;;4.60;2.67;;;;;;;;;;5095836;28;20471;-62
2023/01/11 03:21:34;;;;;;;1.60;1.10;;;;;;;;;;5091000;28;20044;-62
2023/01/11 03:24:14;;;;;;;1.67;1.20;;;;;;;;;;5093576;28;20016;-61
2023/01/11 03:27:12;;;;;;;3.70;1.70;;;;;;;;;;5093353;28;20017;-61
2023/01/11 03:30:05;;;;;;;2.50;1.20;;;;;;;;;;5093610;28;20112;-62
2023/01/11 03:32:45;;;;;;;2.87;1.67;;;;;;;;;;5092551;28;20035;-62
2023/01/11 03:35:24;;;;;;;7.13;3.13;;;;;;;;;;5088388;28;20048;-61
2023/01/11 03:38:07;;;;;;;7.03;2.23;;;;;;;;;;5088367;28;20020;-62
2023/01/11 03:40:41;;;;;;;4.70;1.93;;;;;;;;;;5088917;28;20386;-62
2023/01/11 03:43:18;;;;;;;2.78;1.88;;;;;;;;;;5109397;28;20088;-62
2023/01/11 03:46:10;;;;;;;3.20;1.70;;;;;;;;;;5113968;28;20073;-61
2023/01/11 03:48:55;;;;;;;4.10;2.57;;;;;;;;;;5112979;28;20023;-62
2023/01/11 03:51:38;;;;;;;2.53;1.77;;;;;;;;;;5107434;28;20007;-61
2023/01/11 03:54:20;;;;;;;1.67;0.97;;;;;;;;;;5101674;28;20023;-60
2023/01/11 03:57:06;;;;;;;17.27;3.13;;;;;;;;;;5096875;28;20530;-62
2023/01/11 03:59:38;;;;;;;6.77;3.47;;;;;;;;;;5087772;28;20039;-60
2023/01/11 04:02:05;;;;;;;12.40;2.93;;;;;;;;;;5102981;28;20032;-61
2023/01/11 04:04:44;;;;;;;2.40;1.80;;;;;;;;;;5108014;28;20104;-61
2023/01/11 04:07:13;;;;;;;3.50;2.23;;;;;;;;;;5099655;28;20493;-60
2023/01/11 04:09:43;;;;;;;4.17;2.77;;;;;;;;;;5092862;28;20028;-60
2023/01/11 04:12:34;;;;;;;3.30;2.40;;;;;;;;;;5099955;28;20024;-60
2023/01/11 04:15:04;;;;;;;3.90;2.17;;;;;;;;;;5111423;28;20032;-59
2023/01/11 04:17:31;;;;;;;4.63;2.47;;;;;;;;;;5106230;28;20565;-61
2023/01/11 04:19:58;;;;;;;12.37;2.33;;;;;;;;;;5087498;28;20107;-61
2023/01/11 04:22:29;;;;;;;3.87;2.03;;;;;;;;;;5091379;28;20020;-61
2023/01/11 04:24:59;;;;;;;1.17;1.03;;;;;;;;;;5089803;28;20027;-61
2023/01/11 04:27:29;;;;;;;1.90;1.63;;;;;;;;;;5087317;28;20043;-61
2023/01/11 04:30:00;;;;;;;5.07;1.83;;;;;;;;;;5092652;28;20016;-60
2023/01/11 04:32:36;;;;;;;10.20;2.17;;;;;;;;;;5096561;28;20027;-60
2023/01/11 04:35:12;;;;;;;2.60;2.03;;;;;;;;;;5113026;28;20047;-60
2023/01/11 04:37:46;;;;;;;5.73;1.63;;;;;;;;;;5112855;28;20058;-59
2023/01/11 04:40:23;;;;;;;2.15;1.50;;;;;;;;;;5093052;28;20406;-60
2023/01/11 04:43:00;;;;;;;2.07;1.70;;;;;;;;;;5092195;28;20103;-62
2023/01/11 04:45:32;;;;;;;15.50;1.90;;;;;;;;;;5101002;28;20039;-61
2023/01/11 04:48:02;;;;;;;2.27;1.60;;;;;;;;;;5099224;28;20103;-62
2023/01/11 04:50:34;;;;;;;1.73;1.33;;;;;;;;;;5103865;28;20076;-61
2023/01/11 04:53:02;;;;;;;3.70;2.03;;;;;;;;;;5100055;28;20020;-62
2023/01/11 04:55:30;;;;;;;2.40;1.50;;;;;;;;;;5112236;28;20413;-62
2023/01/11 04:58:00;;;;;;;10.33;1.63;;;;;;;;;;5105561;28;20374;-62
2023/01/11 05:00:29;;;;;;;1.53;1.20;;;;;;;;;;5092105;28;20078;-62
2023/01/11 05:03:00;;;;;;;2.03;1.30;;;;;;;;;;5089506;28;20017;-62
2023/01/11 05:05:37;;;;;;;2.30;1.50;;;;;;;;;;5086983;28;20028;-61
2023/01/11 05:08:15;;;;;;;3.53;1.90;;;;;;;;;;5086840;28;20107;-62
2023/01/11 05:10:46;;;;;;;1.73;1.13;;;;;;;;;;5087471;28;20424;-62
2023/01/11 05:13:15;;;;;;;2.47;1.90;;;;;;;;;;5097262;28;20465;-61
2023/01/11 05:15:46;;;;;;;2.23;1.57;;;;;;;;;;5112466;28;20032;-61
2023/01/11 05:18:17;;;;;;;1.23;0.97;;;;;;;;;;5112350;28;20031;-61
2023/01/11 05:20:51;;;;;;;1.37;1.07;;;;;;;;;;5112250;28;20111;-61
2023/01/11 05:23:24;;;;;;;3.10;1.33;;;;;;;;;;5112692;28;20023;-61
2023/01/11 05:25:55;;;;;;;2.30;1.57;;;;;;;;;;5112339;28;20058;-61
2023/01/11 05:28:26;;;;;;;9.87;1.67;;;;;;;;;;5111131;28;20421;-60
2023/01/11 05:30:58;;;;;;;2.00;1.50;;;;;;;;;;5111046;28;20028;-61
2023/01/11 05:33:37;;;;;;;3.10;1.90;;;;;;;;;;5100400;28;20046;-61
2023/01/11 05:36:13;;;;;;;1.33;1.07;;;;;;;;;;5093826;28;20031;-63
2023/01/11 05:38:45;;;;;;;2.03;1.50;;;;;;;;;;5095734;28;20028;-62
2023/01/11 05:41:15;;;;;;;3.37;1.47;;;;;;;;;;5094841;28;20119;-62
2023/01/11 05:46:35;;;;;;;2.40;1.63;;;;;;;;;;5116100;28;20089;-63
2023/01/11 05:49:10;;;;;;;1.47;1.27;;;;;;;;;;5111149;28;20027;-62
2023/01/11 05:51:41;;;;;;;0.85;0.77;;;;;;;;;;5110916;28;20046;-63
2023/01/11 05:54:16;;;;;;;1.63;1.17;;;;;;;;;;5095369;28;20109;-62
2023/01/11 05:56:45;;;;;;;1.65;1.10;;;;;;;;;;5089944;28;20077;-62
2023/01/11 05:59:18;;;;;;;1.87;1.20;;;;;;;;;;5095268;28;20072;-62
2023/01/11 06:01:49;;;;;;;1.87;0.80;;;;;;;;;;5095260;28;20063;-62
2023/01/11 06:04:20;;;;;;;1.57;1.10;;;;;;;;;;5095236;28;20020;-62
2023/01/11 06:06:51;;;;;;;2.67;1.87;;;;;;;;;;5095289;28;20020;-62
2023/01/11 06:09:22;;;;;;;1.00;0.80;;;;;;;;;;5094334;28;20102;-62
2023/01/11 06:11:56;;;;;;;1.93;1.47;;;;;;;;;;5090040;28;20020;-62
2023/01/11 06:14:29;;;;;;;1.93;0.93;;;;;;;;;;5104866;28;20031;-62
2023/01/11 06:17:02;;;;;;;1.57;1.27;;;;;;;;;;5110030;28;20093;-62
2023/01/11 06:19:36;;;;;;;2.63;2.07;;;;;;;;;;5110506;28;20099;-63
2023/01/11 06:22:05;;;;;;;1.93;1.50;;;;;;;;;;5115025;28;20042;-62
2023/01/11 06:24:41;;;;;;;0.90;0.83;;;;;;;;;;5114855;28;20042;-62
2023/01/11 06:27:12;;;;;;;2.87;1.77;;;;;;;;;;5115261;28;20020;-62
2023/01/11 06:29:45;;;;;;;0.87;0.63;;;;;;;;;;5115063;28;20020;-62
2023/01/11 06:32:22;;;;;;;5.60;1.57;;;;;;;;;;5113122;28;20019;-62
2023/01/11 06:34:56;;;;;;;3.23;1.07;;;;;;;;;;5091143;28;20067;-62
2023/01/11 06:37:29;;;;;;;6.00;1.90;;;;;;;;;;5089184;28;20546;-62
2023/01/11 06:40:03;;;;;;;1.63;1.10;;;;;;;;;;5089048;28;20024;-62
2023/01/11 06:42:34;;;;;;;2.87;1.73;;;;;;;;;;5091676;28;20048;-62
2023/01/11 06:45:05;;;;;;;3.10;1.23;;;;;;;;;;5113097;28;20034;-62
2023/01/11 06:47:38;;;;;;;1.47;1.10;;;;;;;;;;5114761;28;20115;-62
2023/01/11 06:50:05;;;;;;;0.90;0.80;;;;;;;;;;5114664;28;20024;-62
2023/01/11 06:52:32;;;;;;;1.33;1.17;;;;;;;;;;5113582;28;20045;-63
2023/01/11 06:54:59;;;;;;;2.30;1.00;;;;;;;;;;5090959;28;20035;-62
2023/01/11 06:57:25;;;;;;;1.90;1.37;;;;;;;;;;5089003;28;20111;-62
2023/01/11 06:59:52;;;;;;;1.93;1.70;;;;;;;;;;5088949;28;20028;-62
2023/01/11 07:02:19;;;;;;;5.13;2.03;;;;;;;;;;5088989;28;20119;-63
2023/01/11 07:04:45;;;;;;;1.43;1.33;;;;;;;;;;5091106;28;20031;-62
2023/01/11 07:07:12;;;;;;;3.43;1.83;;;;;;;;;;5094057;28;20023;-62
2023/01/11 07:09:39;;;;;;;3.70;1.53;;;;;;;;;;5093904;28;20024;-62
2023/01/11 07:12:05;;;;;;;5.63;1.97;;;;;;;;;;5093368;28;20016;-63
2023/01/11 07:14:32;;;;;;;2.50;1.43;;;;;;;;;;5109711;28;20470;-62
2023/01/11 07:16:59;;;;;;;1.60;1.17;;;;;;;;;;5111670;28;20078;-62
2023/01/11 07:19:25;;;;;;;6.77;1.93;;;;;;;;;;5109059;28;20122;-62
2023/01/11 07:21:52;;;;;;;1.93;1.70;;;;;;;;;;5108649;28;20138;-62
2023/01/11 07:24:19;;;;;;;1.43;1.30;;;;;;;;;;5108535;28;20081;-62
2023/01/11 07:26:45;;;;;;;2.03;1.60;;;;;;;;;;5110380;28;20035;-62
2023/01/11 07:29:12;;;;;;;1.73;1.50;;;;;;;;;;5113453;28;20569;-63
2023/01/11 07:31:39;;;;;;;4.43;1.60;;;;;;;;;;5113918;28;20030;-62
2023/01/11 07:34:05;;;;;;;2.23;1.50;;;;;;;;;;5102003;28;20028;-62
2023/01/11 07:36:38;;;;;;;3.33;2.13;;;;;;;;;;5093479;28;20052;-62
2023/01/11 07:39:05;;;;;;;5.40;1.57;;;;;;;;;;5091523;28;20374;-62
2023/01/11 07:44:37;;;;;;;2.83;2.17;;;;;;;;;;5020093;28;20037;-63
2023/01/11 07:47:03;;;;;;;1.60;1.03;;;;;;;;;;5024874;28;20080;-62
2023/01/11 07:49:31;;;;;;;1.83;1.60;;;;;;;;;;5059912;28;20119;-63
2023/01/11 07:51:57;;;;;;;2.43;1.43;;;;;;;;;;5093000;28;20268;-62
2023/01/11 07:54:24;;;;;;;3.07;2.27;;;;;;;;;;5092884;28;20491;-62
2023/01/11 07:56:51;;;;;;;3.90;1.97;;;;;;;;;;5092945;28;20365;-62
2023/01/11 07:59:18;;;;;;;3.50;2.40;;;;;;;;;;5096089;28;20630;-62
2023/01/11 08:01:44;;;;;;;1.37;1.23;;;;;;;;;;5110520;28;20288;-62
2023/01/11 08:04:13;;;;;;;3.90;2.47;;;;;;;;;;5108007;28;20256;-62
2023/01/11 08:06:40;;;;;;;1.90;1.40;;;;;;;;;;5108112;28;20252;-62
2023/01/11 08:09:07;;;;;;;1.63;1.27;;;;;;;;;;5105080;28;20260;-63
2023/01/11 08:17:04;;;;;;;2.58;1.63;;;;;;;;;;5092417;28;20043;-63
2023/01/11 08:19:31;;;;;;;2.57;1.80;;;;;;;;;;5097605;28;20016;-62
2023/01/11 08:21:58;;;;;;;2.13;1.67;;;;;;;;;;5112745;28;20301;-62
2023/01/11 08:24:24;;;;;;;4.20;2.73;;;;;;;;;;5109548;28;20252;-63
2023/01/11 08:26:51;;;;;;;3.17;1.77;;;;;;;;;;5107861;28;20685;-62
2023/01/11 08:29:18;;;;;;;2.83;2.07;;;;;;;;;;5107358;28;20264;-62
2023/01/11 08:31:45;;;;;;;1.80;1.47;;;;;;;;;;5107875;28;20566;-62
2023/01/11 08:34:12;;;;;;;2.00;1.30;;;;;;;;;;5110228;28;20260;-62
2023/01/11 08:36:39;;;;;;;1.83;1.53;;;;;;;;;;5112759;28;20255;-62
2023/01/11 08:39:06;;;;;;;5.27;1.40;;;;;;;;;;5111243;28;20625;-62
2023/01/11 08:41:32;;;;;;;3.80;2.43;;;;;;;;;;5112737;28;20279;-62
2023/01/11 08:43:59;;;;;;;1.17;0.93;;;;;;;;;;5112844;28;20772;-63
2023/01/11 08:46:26;;;;;;;2.33;2.07;;;;;;;;;;5109961;28;20252;-62
2023/01/11 08:48:53;;;;;;;1.70;1.37;;;;;;;;;;5107522;28;20263;-62
2023/01/11 08:51:20;;;;;;;1.40;1.20;;;;;;;;;;5089051;28;20662;-62
2023/01/11 08:53:47;;;;;;;1.47;0.97;;;;;;;;;;5086860;28;20264;-63
2023/01/11 08:56:13;;;;;;;2.97;1.77;;;;;;;;;;5107150;28;20271;-62
2023/01/11 08:58:40;;;;;;;3.70;2.70;;;;;;;;;;5116911;28;20259;-62
2023/01/11 09:01:08;;;;;;;3.83;2.23;;;;;;;;;;5116615;28;20279;-62
2023/01/11 09:03:35;;;;;;;2.37;1.57;;;;;;;;;;5116683;28;20248;-62
2023/01/11 09:06:02;;;;;;;3.83;1.97;;;;;;;;;;5116042;28;20275;-62
2023/01/11 09:08:28;;;;;;;2.63;1.67;;;;;;;;;;5113931;28;20263;-62
2023/01/11 09:10:58;;;;;;;4.63;2.33;;;;;;;;;;5111434;28;20260;-62
2023/01/11 09:13:25;;;;;;;5.13;1.73;;;;;;;;;;5109739;28;20255;-62
2023/01/11 09:15:55;;;;;;;3.90;2.20;;;;;;;;;;5095399;28;20259;-62
2023/01/11 09:18:22;;;;;;;2.03;1.40;;;;;;;;;;5113200;28;20271;-62
2023/01/11 09:20:50;;;;;;;2.70;1.60;;;;;;;;;;5116369;28;20287;-62
2023/01/11 09:23:17;;;;;;;3.67;1.53;;;;;;;;;;5115862;28;20606;-62
2023/01/11 09:25:44;;;;;;;0.67;0.67;;;;;;;;;;5115976;28;20273;-62
2023/01/11 09:28:10;;;;;;;1.37;1.17;;;;;;;;;;5116367;28;20283;-62
2023/01/11 09:30:38;;;;;;;0.73;0.63;;;;;;;;;;5113945;28;20256;-62
2023/01/11 09:33:05;;;;;;;0.80;0.80;;;;;;;;;;5110933;28;20248;-62
2023/01/11 09:35:33;;;;;;;0.70;0.67;;;;;;;;;;5109969;28;20268;-62
2023/01/11 09:38:01;;;;;;;1.07;0.83;;;;;;;;;;5090397;28;20264;-62
2023/01/11 09:40:34;;;;;;;1.77;1.20;;;;;;;;;;5091442;28;20333;-62
2023/01/11 09:43:03;;;;;;;1.97;1.50;;;;;;;;;;5095588;28;20333;-62
2023/01/11 09:45:31;;;;;;;3.33;2.20;;;;;;;;;;5095458;28;20754;-62
2023/01/11 09:48:10;;;;;;;2.40;1.43;;;;;;;;;;5095489;28;20261;-62
2023/01/11 09:50:42;;;;;;;2.20;1.23;;;;;;;;;;5095765;28;20599;-62
2023/01/11 09:53:13;;;;;;;0.80;0.77;;;;;;;;;;5092653;28;20273;-62
2023/01/11 09:55:42;;;;;;;1.77;1.40;;;;;;;;;;5090515;28;20253;-62
2023/01/11 09:58:13;;;;;;;2.77;1.37;;;;;;;;;;5090275;28;20256;-62
2023/01/11 10:00:49;;;;;;;1.10;1.00;;;;;;;;;;5090071;28;20678;-62
2023/01/11 10:03:33;;;;;;;1.23;1.00;;;;;;;;;;5092335;28;20260;-62
2023/01/11 10:06:03;;;;;;;4.80;2.27;;;;;;;;;;5098531;28;20299;-62
2023/01/11 10:08:50;;;;;;;1.67;1.57;;;;;;;;;;5114963;28;20248;-62
2023/01/11 10:11:19;;;;;;;2.40;2.20;;;;;;;;;;5101252;28;20666;-62
2023/01/11 10:14:02;;;;;;;1.60;1.20;;;;;;;;;;5115531;28;20389;-62
2023/01/11 10:16:45;;;;;;;1.80;1.40;;;;;;;;;;5102665;28;20277;-62
2023/01/11 10:19:17;;;;;;;1.00;0.90;;;;;;;;;;5089418;28;21739;-63
2023/01/11 10:21:45;;;;;;;1.93;1.57;;;;;;;;;;5089436;28;20324;-62
2023/01/11 10:24:15;;;;;;;3.23;1.93;;;;;;;;;;5089491;28;20289;-62
2023/01/11 10:26:41;;;;;;;3.67;3.07;;;;;;;;;;5095009;28;20363;-62
2023/01/11 10:34:40;;;;;;;3.33;2.63;;;;;;;;;;5094662;28;20261;-62
2023/01/11 10:42:40;;;;;;;1.73;1.43;;;;;;;;;;5109621;28;20615;-62
2023/01/11 10:45:14;;;;;;;4.63;2.90;;;;;;;;;;5109680;28;20256;-62
2023/01/11 10:48:11;;;;;;;1.33;1.10;;;;;;;;;;5094942;28;20351;-62
2023/01/11 10:51:00;;;;;;;2.40;1.60;;;;;;;;;;5077695;28;20352;-62
2023/01/11 10:53:34;;;;;;;1.10;1.00;;;;;;;;;;5056157;28;20785;-62
2023/01/11 10:56:04;;;;;;;2.97;2.33;;;;;;;;;;5093852;28;20363;-62
2023/01/11 10:58:49;;;;;;;2.43;1.93;;;;;;;;;;5094257;28;20665;-62
2023/01/11 11:01:23;;;;;;;1.17;1.07;;;;;;;;;;5088766;28;20333;-62
2023/01/11 11:03:52;;;;;;;2.40;1.80;;;;;;;;;;5089033;28;20339;-62
2023/01/11 11:06:23;;;;;;;3.00;1.87;;;;;;;;;;5092752;28;20284;-62
2023/01/11 11:08:56;;;;;;;4.20;2.00;;;;;;;;;;5109118;28;20263;-61
2023/01/11 11:11:32;;;;;;;3.33;2.83;;;;;;;;;;5114318;28;20276;-62
2023/01/11 11:14:11;;;;;;;3.87;2.60;;;;;;;;;;5113657;28;20240;-62
2023/01/11 11:16:46;;;;;;;4.83;2.53;;;;;;;;;;5107351;28;20260;-62
2023/01/11 11:19:15;;;;;;;6.88;3.55;;;;;;;;;;5093777;28;20654;-61
2023/01/11 11:21:42;;;;;;;4.90;2.60;;;;;;;;;;5091097;28;20024;-62
2023/01/11 11:24:26;;;;;;;6.23;3.30;;;;;;;;;;5088428;28;20248;-62
2023/01/11 11:27:14;;;;;;;16.30;3.40;;;;;;;;;;5088776;28;20661;-61
2023/01/11 11:29:43;;;;;;;4.40;2.93;;;;;;;;;;5088350;28;20264;-62
2023/01/11 11:32:21;;;;;;;2.17;1.60;;;;;;;;;;5103413;28;20260;-62
2023/01/11 11:34:49;;;;;;;4.23;2.30;;;;;;;;;;5113748;28;20745;-62
2023/01/11 11:37:22;;;;;;;2.43;1.80;;;;;;;;;;5113886;28;20282;-62
2023/01/11 11:39:50;;;;;;;6.03;1.77;;;;;;;;;;5113843;28;20249;-62
2023/01/11 11:42:20;;;;;;;3.27;2.50;;;;;;;;;;5099781;28;20292;-62
2023/01/11 11:45:07;;;;;;;2.43;1.93;;;;;;;;;;5089807;28;20271;-62
2023/01/11 11:47:33;;;;;;;3.10;2.13;;;;;;;;;;5074234;28;20275;-62
2023/01/11 11:50:20;;;;;;;2.53;1.70;;;;;;;;;;5087997;28;20257;-61
2023/01/11 11:52:49;;;;;;;6.17;1.93;;;;;;;;;;5090839;28;20329;-62
2023/01/11 11:55:16;;;;;;;1.87;1.67;;;;;;;;;;5112254;28;20296;-62
2023/01/11 11:57:43;;;;;;;1.90;1.50;;;;;;;;;;5094582;28;20381;-62
2023/01/11 12:00:13;;;;;;;4.97;3.53;;;;;;;;;;5092828;28;20671;-62
2023/01/11 12:02:43;;;;;;;1.50;1.40;;;;;;;;;;5108991;28;20271;-62
2023/01/11 12:05:10;;;;;;;3.10;1.77;;;;;;;;;;5113027;28;20297;-62
2023/01/11 12:07:42;;;;;;;3.13;1.87;;;;;;;;;;5108715;28;20749;-62
2023/01/11 12:10:12;;;;;;;1.60;1.50;;;;;;;;;;5108171;28;20309;-62
2023/01/11 12:12:54;;;;;;;1.60;1.23;;;;;;;;;;5091861;28;20260;-62
2023/01/11 12:15:29;;;;;;;2.80;2.00;;;;;;;;;;5087493;28;20410;-62
2023/01/11 12:18:14;;;;;;;2.35;1.77;;;;;;;;;;5092313;28;20256;-62
2023/01/11 12:20:43;;;;;;;1.30;1.20;;;;;;;;;;5092241;28;20016;-62
2023/01/11 12:23:11;;;;;;;2.70;2.10;;;;;;;;;;5092838;28;20028;-62
2023/01/11 12:25:57;;;;;;;9.77;3.37;;;;;;;;;;5092773;28;20260;-62
2023/01/11 12:28:27;;;;;;;2.73;2.10;;;;;;;;;;5091378;28;20339;-62
2023/01/11 12:30:56;;;;;;;4.17;2.70;;;;;;;;;;5087297;28;20302;-62
2023/01/11 12:33:37;;;;;;;2.73;2.20;;;;;;;;;;5107537;28;20316;-62
2023/01/11 12:36:04;;;;;;;1.63;1.53;;;;;;;;;;5107546;28;20251;-62
2023/01/11 12:38:34;;;;;;;2.87;2.30;;;;;;;;;;5108745;28;20304;-61
2023/01/11 12:41:09;;;;;;;1.63;1.40;;;;;;;;;;5092404;28;20320;-61
2023/01/11 12:43:37;;;;;;;2.27;2.07;;;;;;;;;;5092480;28;20261;-62
2023/01/11 12:46:19;;;;;;;4.50;1.63;;;;;;;;;;5092427;28;20758;-62
2023/01/11 12:48:55;;;;;;;2.13;1.73;;;;;;;;;;5092322;28;20276;-62
2023/01/11 12:51:41;;;;;;;2.43;1.77;;;;;;;;;;5110010;28;20351;-62
2023/01/11 12:54:28;;;;;;;1.10;1.00;;;;;;;;;;5106940;28;20745;-62
2023/01/11 12:57:06;;;;;;;3.03;2.38;;;;;;;;;;5095403;28;20328;-62
2023/01/11 12:59:51;;;;;;;1.47;1.37;;;;;;;;;;5086986;28;20043;-62
2023/01/11 13:02:36;;;;;;;3.30;2.13;;;;;;;;;;5102267;28;20324;-62
2023/01/11 13:05:24;;;;;;;3.13;1.52;;;;;;;;;;5111168;28;20030;-62
2023/01/11 13:08:11;;;;;;;2.57;2.03;;;;;;;;;;5112395;28;20504;-62
2023/01/11 13:10:56;;;;;;;3.53;2.27;;;;;;;;;;5112052;28;20264;-62
2023/01/11 13:13:38;;;;;;;2.38;1.92;;;;;;;;;;5105463;28;20260;-62
2023/01/11 13:16:16;;;;;;;2.90;1.97;;;;;;;;;;5086643;28;20020;-61
2023/01/11 13:18:52;;;;;;;14.57;3.50;;;;;;;;;;5099704;28;20268;-61
2023/01/11 13:21:28;;;;;;;2.43;1.50;;;;;;;;;;5105569;28;20815;-61
2023/01/11 13:23:58;;;;;;;2.77;2.03;;;;;;;;;;5108199;28;20260;-61
2023/01/11 13:26:28;;;;;;;2.57;2.07;;;;;;;;;;5110214;28;20256;-61
2023/01/11 13:28:58;;;;;;;1.73;1.37;;;;;;;;;;5094706;28;20261;-61
2023/01/11 13:31:26;;;;;;;1.53;1.30;;;;;;;;;;5090570;28;20360;-61
2023/01/11 13:33:56;;;;;;;5.97;2.97;;;;;;;;;;5090522;28;20261;-61
2023/01/11 13:36:26;;;;;;;11.30;2.60;;;;;;;;;;5086642;28;20255;-61
2023/01/11 13:39:02;;;;;;;6.03;3.17;;;;;;;;;;5086001;28;20248;-61
2023/01/11 13:41:35;;;;;;;1.80;1.47;;;;;;;;;;5104640;28;20292;-61
2023/01/11 13:44:20;;;;;;;8.00;2.13;;;;;;;;;;5107741;28;20252;-61
2023/01/11 13:46:53;;;;;;;6.93;3.80;;;;;;;;;;5115022;28;20346;-61
2023/01/11 13:49:38;;;;;;;5.63;3.27;;;;;;;;;;5115931;28;20737;-61
2023/01/11 13:52:13;;;;;;;5.75;4.18;;;;;;;;;;5109960;28;20257;-61
2023/01/11 13:54:56;;;;;;;4.00;2.75;;;;;;;;;;5095479;28;20035;-61
2023/01/11 13:57:28;;;;;;;4.40;3.47;;;;;;;;;;5093074;28;20035;-61
2023/01/11 13:59:57;;;;;;;5.43;3.83;;;;;;;;;;5089531;28;20271;-61
2023/01/11 14:02:34;;;;;;;4.63;3.77;;;;;;;;;;5089134;28;20319;-61
2023/01/11 14:05:18;;;;;;;12.10;4.07;;;;;;;;;;5104738;28;20272;-61
2023/01/11 14:07:45;;;;;;;13.70;4.70;;;;;;;;;;5111739;28;20293;-61
2023/01/11 14:10:38;;;;;;;32.17;5.00;;;;;;;;;;5115179;28;20268;-61
2023/01/11 14:14:11;;;;;;;9.80;4.07;;;;;;;;;;5084663;28;20261;-62
2023/01/11 14:16:07;;;;;;;4.33;2.93;;;;;;;;;;5100383;28;20281;-62
2023/01/11 14:18:42;;;;;;;11.23;3.30;;;;;;;;;;5074404;28;20264;-62
2023/01/11 14:21:14;;;;;;;10.38;2.88;;;;;;;;;;5069278;28;20281;-62
2023/01/11 14:23:46;;;;;;;19.90;3.67;;;;;;;;;;5069040;28;20024;-61
2023/01/11 14:26:25;;;;;;;4.00;3.07;;;;;;;;;;5068724;28;20783;-61
2023/01/11 14:28:52;;;;;;;4.27;3.30;;;;;;;;;;5082511;28;20081;-62
2023/01/11 14:31:31;;;;;;;6.53;3.87;;;;;;;;;;5094354;28;20020;-62
2023/01/11 14:34:16;;;;;;;26.17;5.63;;;;;;;;;;5094288;28;20107;-62
2023/01/11 14:36:51;;;;;;;4.65;3.38;;;;;;;;;;5094857;28;20990;-62
2023/01/11 14:39:35;;;;;;;6.70;5.32;;;;;;;;;;5090905;28;20028;-62
2023/01/11 14:42:08;;;;;;;15.93;3.78;;;;;;;;;;5071677;28;20042;-62
2023/01/11 14:44:54;;;;;;;6.77;4.20;;;;;;;;;;5068587;28;20125;-62
2023/01/11 14:47:29;;;;;;;10.35;6.32;;;;;;;;;;5068515;28;20028;-61
2023/01/11 14:49:56;;;;;;;;;;;;;;;;;;5076142;28;20074;-62
2023/01/11 14:52:27;;;;;;;5.70;4.60;;;;;;;;;;5091424;28;20362;-62
2023/01/11 14:54:55;;;;;;;7.40;5.57;;;;;;;;;;5093772;28;20043;-62
2023/01/11 14:57:38;;;;;;;6.23;4.63;;;;;;;;;;5094339;28;20021;-62
2023/01/11 15:00:11;;;;;;;5.20;3.73;;;;;;;;;;5094075;28;20024;-62
2023/01/11 15:02:37;;;;;;;12.77;8.17;;;;;;;;;;5081646;28;20051;-62
2023/01/11 15:05:05;;;;;;;19.20;11.57;;;;;;;;;;5069805;28;20021;-62
2023/01/11 15:07:32;;;;;;;18.33;8.80;;;;;;;;;;5068219;28;20422;-63
2023/01/11 15:10:03;;;;;;;8.33;4.90;;;;;;;;;;5068045;28;20013;-62
2023/01/11 15:12:34;;;;;;;9.03;5.73;;;;;;;;;;5067750;28;20020;-62
2023/01/11 15:15:03;;;;;;;12.60;8.03;;;;;;;;;;5086862;28;20036;-62
2023/01/11 15:20:23;;;;;;;13.87;8.20;;;;;;;;;;5079040;28;20056;-62
2023/01/11 15:23:12;;;;;;;9.07;5.83;;;;;;;;;;5073268;28;20670;-62
2023/01/11 15:25:38;;;;;;;6.23;5.13;;;;;;;;;;5072655;28;20119;-62
2023/01/11 15:28:25;;;;;;;8.10;5.97;;;;;;;;;;5067632;28;20363;-62
2023/01/11 15:30:52;;;;;;;10.67;6.57;;;;;;;;;;5085619;28;20397;-62
2023/01/11 15:33:19;;;;;;;8.60;3.83;;;;;;;;;;5088047;28;20334;-62
2023/01/11 15:35:57;;;;;;;7.47;4.67;;;;;;;;;;5069260;28;20024;-62
2023/01/11 15:38:42;;;;;;;6.57;3.60;;;;;;;;;;5073100;28;20052;-62
2023/01/11 15:44:06;;;;;;;3.80;2.50;;;;;;;;;;5075975;28;20043;-62
2023/01/11 15:46:54;;;;;;;7.73;3.90;;;;;;;;;;5093135;28;20031;-63
2023/01/11 15:49:21;;;;;;;17.93;2.90;;;;;;;;;;5089286;28;20367;-62
2023/01/11 15:51:47;;;;;;;5.57;3.50;;;;;;;;;;5087514;28;20012;-62
2023/01/11 15:54:23;;;;;;;3.30;2.63;;;;;;;;;;5087343;28;20040;-62